createdAt,value
2023-05-12T00:01:04.070Z,0.20
2023-05-12T00:03:30.751Z,0.22
2023-05-12T00:06:03.407Z,0.30
2023-05-12T00:08:31.518Z,0.20
2023-05-12T00:10:58.641Z,0.10
2023-05-12T00:13:25.499Z,0.10
2023-05-12T00:15:52.461Z,0.40
2023-05-12T00:18:19.170Z,0.10
2023-05-12T00:20:45.920Z,0.20
2023-05-12T00:23:12.992Z,0.20
2023-05-12T00:25:40.994Z,0.15
2023-05-12T00:28:07.645Z,0.20
2023-05-12T00:30:34.317Z,0.10
2023-05-12T00:33:01.036Z,0.20
2023-05-12T00:35:27.863Z,0.10
2023-05-12T00:37:54.520Z,0.10
2023-05-12T00:40:21.218Z,0.20
2023-05-12T00:42:49.826Z,0.13
2023-05-12T00:45:17.140Z,0.35
2023-05-12T00:47:45.455Z,0.57
2023-05-12T00:50:12.621Z,0.55
2023-05-12T00:52:39.274Z,0.28
2023-05-12T00:55:06.800Z,0.35
2023-05-12T00:57:33.758Z,0.30
2023-05-12T01:00:01.767Z,0.10
2023-05-12T01:02:29.070Z,0.20
2023-05-12T01:04:56.111Z,0.10
2023-05-12T01:07:23.071Z,0.47
2023-05-12T01:09:54.532Z,0.13
2023-05-12T01:12:21.469Z,0.10
2023-05-12T01:14:48.654Z,0.20
2023-05-12T01:17:20.798Z,0.52
2023-05-12T01:19:49.480Z,0.20
2023-05-12T01:22:17.572Z,0.50
2023-05-12T01:24:48.098Z,0.17
2023-05-12T01:27:17.903Z,0.30
2023-05-12T01:29:46.637Z,0.20
2023-05-12T01:32:13.840Z,0.10
2023-05-12T01:34:42.505Z,0.35
2023-05-12T01:37:09.559Z,0.33
2023-05-12T01:39:36.559Z,0.10
2023-05-12T01:42:03.843Z,0.15
2023-05-12T01:44:31.848Z,0.10
2023-05-12T01:46:58.614Z,0.10
2023-05-12T01:49:25.239Z,0.22
2023-05-12T01:51:51.898Z,0.10
2023-05-12T01:54:18.707Z,0.15
2023-05-12T01:56:45.745Z,0.40
2023-05-12T01:59:12.396Z,0.10
2023-05-12T02:01:40.509Z,0.50
2023-05-12T02:04:08.899Z,0.13
2023-05-12T02:06:35.899Z,0.20
2023-05-12T02:09:02.878Z,0.10
2023-05-12T02:11:29.665Z,0.17
2023-05-12T02:13:56.934Z,0.10
2023-05-12T02:16:23.665Z,0.10
2023-05-12T02:18:51.695Z,0.20
2023-05-12T02:21:18.413Z,0.30
2023-05-12T02:23:45.067Z,0.17
2023-05-12T02:26:11.761Z,0.88
2023-05-12T02:28:38.803Z,0.47
2023-05-12T02:31:05.449Z,0.52
2023-05-12T02:33:32.097Z,0.22
2023-05-12T02:36:00.046Z,0.10
2023-05-12T02:38:27.513Z,0.17
2023-05-12T02:40:54.151Z,0.20
2023-05-12T02:43:20.961Z,0.17
2023-05-12T02:45:47.645Z,0.22
2023-05-12T02:48:14.211Z,0.10
2023-05-12T02:50:40.893Z,0.40
2023-05-12T02:53:08.837Z,0.20
2023-05-12T02:55:35.566Z,0.10
2023-05-12T02:58:02.181Z,0.13
2023-05-12T03:00:28.782Z,0.82
2023-05-12T03:02:55.562Z,0.17
2023-05-12T03:05:22.221Z,0.22
2023-05-12T03:07:49.563Z,1.40
2023-05-12T03:10:18.932Z,0.47
2023-05-12T03:15:12.406Z,0.35
2023-05-12T03:17:39.057Z,0.65
2023-05-12T03:20:07.062Z,0.20
2023-05-12T03:22:34.170Z,0.10
2023-05-12T03:25:00.876Z,0.10
2023-05-12T03:27:29.022Z,0.20
2023-05-12T03:29:55.672Z,0.30
2023-05-12T03:32:22.329Z,0.17
2023-05-12T03:34:48.981Z,0.13
2023-05-12T03:37:16.134Z,0.20
2023-05-12T03:39:42.731Z,0.20
2023-05-12T03:42:09.345Z,0.20
2023-05-12T03:44:37.357Z,1.55
2023-05-12T03:47:04.476Z,0.10
2023-05-12T03:49:31.108Z,1.42
2023-05-12T03:51:57.688Z,0.20
2023-05-12T03:54:24.435Z,0.10
2023-05-12T03:56:52.249Z,0.10
2023-05-12T03:59:18.955Z,0.28
2023-05-12T04:01:46.937Z,0.75
2023-05-12T04:04:13.565Z,0.10
2023-05-12T04:06:40.208Z,0.32
2023-05-12T04:09:06.772Z,0.10
2023-05-12T04:11:33.518Z,0.10
2023-05-12T04:14:00.134Z,0.20
2023-05-12T04:16:26.820Z,0.10
2023-05-12T04:18:54.877Z,0.30
2023-05-12T04:21:21.483Z,0.22
2023-05-12T04:23:51.170Z,0.05
2023-05-12T04:28:44.183Z,0.10
2023-05-12T04:31:10.748Z,0.15
2023-05-12T04:33:37.309Z,0.15
2023-05-12T04:36:05.796Z,0.22
2023-05-12T04:38:32.344Z,0.20
2023-05-12T04:40:59.296Z,0.25
2023-05-12T04:48:22.359Z,0.20
2023-05-12T04:50:49.200Z,0.43
2023-05-12T04:53:17.408Z,0.32
2023-05-12T04:55:45.956Z,0.30
2023-05-12T04:58:13.628Z,0.17
2023-05-12T05:00:40.464Z,0.10
2023-05-12T05:03:07.174Z,0.15
2023-05-12T05:05:33.800Z,0.10
2023-05-12T05:08:00.396Z,0.20
2023-05-12T05:10:28.321Z,0.20
2023-05-12T05:12:54.916Z,0.17
2023-05-12T05:15:21.713Z,0.30
2023-05-12T05:17:49.676Z,0.20
2023-05-12T05:20:16.603Z,0.28
2023-05-12T05:22:43.348Z,0.17
2023-05-12T05:25:10.707Z,0.52
2023-05-12T05:27:38.882Z,0.20
2023-05-12T05:30:07.766Z,0.30
2023-05-12T05:32:35.597Z,1.15
2023-05-12T05:35:02.621Z,0.28
2023-05-12T05:37:29.203Z,0.30
2023-05-12T05:39:55.757Z,2.08
2023-05-12T05:42:22.380Z,1.85
2023-05-12T05:44:50.346Z,0.68
2023-05-12T05:47:16.884Z,0.93
2023-05-12T05:49:43.974Z,0.90
2023-05-12T05:52:10.782Z,0.57
2023-05-12T05:54:37.488Z,0.30
2023-05-12T05:57:04.395Z,3.07
2023-05-12T05:59:31.051Z,0.63
2023-05-12T06:01:59.137Z,1.00
2023-05-12T06:04:25.908Z,0.73
2023-05-12T06:06:52.599Z,0.88
2023-05-12T06:09:19.246Z,0.67
2023-05-12T06:11:45.812Z,0.35
2023-05-12T06:14:12.493Z,0.60
2023-05-12T06:16:39.623Z,0.80
2023-05-12T06:19:07.760Z,1.35
2023-05-12T06:21:34.420Z,0.55
2023-05-12T06:24:01.072Z,3.75
2023-05-12T06:26:27.602Z,0.70
2023-05-12T06:28:54.149Z,1.45
2023-05-12T06:31:20.743Z,2.30
2023-05-12T06:33:47.397Z,1.92
2023-05-12T06:36:15.285Z,0.80
2023-05-12T06:38:41.938Z,0.40
2023-05-12T06:41:08.513Z,0.50
2023-05-12T06:43:35.180Z,1.20
2023-05-12T06:46:01.939Z,0.98
2023-05-12T06:48:28.576Z,2.63
2023-05-12T06:50:55.131Z,1.13
2023-05-12T06:53:24.898Z,0.50
2023-05-12T06:55:53.580Z,1.23
2023-05-12T06:58:22.075Z,1.25
2023-05-12T07:00:48.825Z,1.37
2023-05-12T07:03:15.664Z,1.25
2023-05-12T07:05:42.749Z,1.30
2023-05-12T07:08:09.413Z,1.77
2023-05-12T07:10:38.028Z,1.50
2023-05-12T07:13:04.763Z,1.42
2023-05-12T07:15:32.901Z,1.20
2023-05-12T07:17:59.987Z,2.27
2023-05-12T07:20:27.130Z,0.70
2023-05-12T07:22:54.788Z,0.70
2023-05-12T07:25:21.874Z,1.30
2023-05-12T07:27:50.462Z,0.97
2023-05-12T07:30:17.155Z,2.60
2023-05-12T07:32:43.889Z,0.70
2023-05-12T07:35:10.634Z,0.80
2023-05-12T07:37:37.374Z,0.60
2023-05-12T07:40:04.866Z,0.63
2023-05-12T07:42:31.600Z,0.70
2023-05-12T07:44:59.732Z,0.40
2023-05-12T07:47:26.490Z,0.37
2023-05-12T07:49:53.182Z,0.43
2023-05-12T07:52:19.824Z,0.40
2023-05-12T07:54:46.499Z,0.40
2023-05-12T07:57:13.167Z,0.45
2023-05-12T07:59:40.626Z,0.30
2023-05-12T08:02:08.597Z,0.40
2023-05-12T08:04:35.396Z,0.33
2023-05-12T08:07:02.063Z,0.40
2023-05-12T08:09:28.644Z,0.40
2023-05-12T08:11:55.247Z,0.35
2023-05-12T08:14:22.744Z,0.80
2023-05-12T08:16:49.466Z,1.48
2023-05-12T08:19:17.442Z,0.90
2023-05-12T08:21:44.075Z,1.77
2023-05-12T08:24:10.641Z,0.87
2023-05-12T08:26:37.579Z,0.23
2023-05-12T08:29:05.983Z,0.33
2023-05-12T08:31:32.784Z,0.77
2023-05-12T08:34:09.209Z,1.58
2023-05-12T08:36:38.720Z,0.40
2023-05-12T08:39:05.598Z,0.43
2023-05-12T08:41:41.895Z,2.87
2023-05-12T08:44:09.040Z,0.10
2023-05-12T08:46:35.747Z,0.20
2023-05-12T08:49:04.548Z,0.20
2023-05-12T08:51:32.510Z,0.10
2023-05-12T08:54:00.876Z,0.22
2023-05-12T08:58:57.521Z,0.20
2023-05-12T09:01:25.949Z,0.10
2023-05-12T09:03:54.656Z,0.20
2023-05-12T09:06:21.720Z,0.73
2023-05-12T09:08:48.524Z,0.40
2023-05-12T09:11:17.195Z,0.20
2023-05-12T09:13:53.524Z,0.27
2023-05-12T09:16:24.245Z,0.20
2023-05-12T09:18:52.932Z,0.60
2023-05-12T09:21:19.936Z,0.13
2023-05-12T09:23:54.034Z,0.85
2023-05-12T09:26:22.780Z,1.13
2023-05-12T09:28:50.854Z,0.10
2023-05-12T09:31:18.189Z,0.30
2023-05-12T09:33:44.999Z,0.10
2023-05-12T09:36:11.672Z,0.10
2023-05-12T09:38:38.430Z,0.10
2023-05-12T09:41:05.143Z,1.23
2023-05-12T09:43:33.202Z,0.50
2023-05-12T09:46:05.823Z,0.20
2023-05-12T09:48:32.917Z,0.50
2023-05-12T09:50:59.702Z,0.35
2023-05-12T09:53:26.479Z,0.20
2023-05-12T09:55:53.135Z,0.32
2023-05-12T09:58:20.818Z,0.55
2023-05-12T10:01:17.897Z,0.10
2023-05-12T10:03:40.675Z,0.40
2023-05-12T10:06:11.001Z,0.00
2023-05-12T10:08:41.927Z,0.00
2023-05-12T10:11:09.455Z,1.17
2023-05-12T10:13:36.152Z,2.28
2023-05-12T10:16:05.709Z,0.60
2023-05-12T10:18:33.702Z,0.30
2023-05-12T10:21:01.325Z,0.15
2023-05-12T10:23:28.815Z,0.20
2023-05-12T10:26:01.957Z,0.20
2023-05-12T10:28:29.004Z,0.10
2023-05-12T10:30:56.935Z,0.10
2023-05-12T10:33:28.313Z,1.42
2023-05-12T10:35:54.974Z,0.05
2023-05-12T10:38:21.670Z,0.10
2023-05-12T10:40:58.792Z,0.05
2023-05-12T10:43:27.462Z,0.47
2023-05-12T10:46:10.203Z,0.10
2023-05-12T10:48:50.452Z,0.13
2023-05-12T10:51:21.199Z,0.00
2023-05-12T10:53:54.565Z,0.05
2023-05-12T10:56:23.713Z,0.52
2023-05-12T10:59:17.646Z,0.00
2023-05-12T11:02:01.792Z,0.75
2023-05-12T11:04:41.144Z,0.57
2023-05-12T11:07:09.625Z,0.10
2023-05-12T11:09:43.254Z,0.27
2023-05-12T11:12:17.249Z,0.10
2023-05-12T11:14:45.703Z,0.30
2023-05-12T11:17:12.972Z,0.40
2023-05-12T11:19:45.755Z,0.25
2023-05-12T11:22:12.858Z,0.17
2023-05-12T11:24:40.847Z,0.10
2023-05-12T11:27:12.221Z,1.40
2023-05-12T11:29:40.608Z,0.20
2023-05-12T11:32:08.493Z,0.08
2023-05-12T11:34:35.342Z,0.20
2023-05-12T11:37:04.523Z,0.52
2023-05-12T11:39:32.389Z,0.25
2023-05-12T11:42:09.469Z,0.20
2023-05-12T11:44:46.974Z,1.20
2023-05-12T11:47:14.767Z,0.45
2023-05-12T11:49:47.455Z,0.30
2023-05-12T11:52:15.963Z,0.75
2023-05-12T11:54:48.912Z,0.82
2023-05-12T11:57:26.187Z,0.43
2023-05-12T11:59:57.912Z,0.52
2023-05-12T12:02:24.534Z,0.95
2023-05-12T12:04:51.301Z,0.40
2023-05-12T12:07:28.793Z,0.77
2023-05-12T12:09:56.906Z,0.38
2023-05-12T12:12:23.892Z,1.02
2023-05-12T12:14:50.731Z,3.70
2023-05-12T12:17:17.530Z,0.47
2023-05-12T12:19:44.190Z,0.40
2023-05-12T12:22:10.860Z,0.73
2023-05-12T12:24:38.806Z,0.60
2023-05-12T12:27:05.962Z,0.38
2023-05-12T12:29:32.587Z,0.80
2023-05-12T12:31:59.193Z,0.50
2023-05-12T12:34:26.173Z,0.40
2023-05-12T12:36:52.817Z,1.00
2023-05-12T12:39:20.145Z,0.15
2023-05-12T12:41:48.255Z,0.63
2023-05-12T12:44:14.998Z,0.77
2023-05-12T12:46:41.898Z,0.80
2023-05-12T12:49:08.555Z,1.08
2023-05-12T12:51:45.020Z,0.30
2023-05-12T12:54:12.140Z,1.75
2023-05-12T12:56:39.326Z,0.82
2023-05-12T12:59:07.326Z,0.47
2023-05-12T13:01:34.173Z,0.80
2023-05-12T13:04:01.126Z,0.82
2023-05-12T13:06:29.186Z,3.00
2023-05-12T13:08:56.405Z,1.13
2023-05-12T13:11:24.189Z,0.20
2023-05-12T13:13:50.828Z,1.20
2023-05-12T13:16:18.851Z,0.60
2023-05-12T13:18:45.829Z,0.10
2023-05-12T13:21:12.456Z,1.65
2023-05-12T13:23:38.994Z,0.25
2023-05-12T13:26:05.571Z,0.20
2023-05-12T13:28:32.264Z,0.20
2023-05-12T13:30:58.865Z,0.50
2023-05-12T13:33:26.880Z,1.48
2023-05-12T13:35:55.077Z,0.30
2023-05-12T13:38:22.321Z,0.52
2023-05-12T13:40:49.054Z,0.20
2023-05-12T13:43:15.753Z,0.30
2023-05-12T13:45:42.776Z,0.52
2023-05-12T13:48:09.661Z,0.13
2023-05-12T13:50:37.641Z,3.75
2023-05-12T13:53:04.399Z,0.60
2023-05-12T13:55:33.812Z,0.63
2023-05-12T13:58:00.375Z,0.75
2023-05-12T14:00:29.743Z,0.30
2023-05-12T14:02:57.615Z,0.50
2023-05-12T14:05:24.794Z,0.50
2023-05-12T14:07:52.862Z,2.05
2023-05-12T14:10:19.783Z,0.32
2023-05-12T14:12:46.652Z,2.72
2023-05-12T14:15:32.571Z,0.10
2023-05-12T14:18:00.789Z,0.25
2023-05-12T14:20:27.411Z,0.47
2023-05-12T14:22:55.631Z,0.52
2023-05-12T14:25:23.117Z,0.93
2023-05-12T14:27:49.856Z,0.75
2023-05-12T14:30:16.755Z,0.90
2023-05-12T14:32:43.531Z,0.65
2023-05-12T14:35:10.644Z,0.35
2023-05-12T14:37:37.447Z,1.65
2023-05-12T14:40:07.363Z,0.43
2023-05-12T14:42:34.034Z,0.30
2023-05-12T14:45:00.670Z,0.30
2023-05-12T14:47:27.239Z,0.25
2023-05-12T14:49:54.454Z,1.13
2023-05-12T14:52:21.154Z,0.57
2023-05-12T14:54:47.722Z,0.20
2023-05-12T14:57:15.640Z,0.65
2023-05-12T14:59:42.223Z,0.30
2023-05-12T15:02:08.988Z,1.00
2023-05-12T15:04:35.801Z,2.38
2023-05-12T15:07:02.452Z,0.47
2023-05-12T15:09:29.350Z,0.20
2023-05-12T15:11:56.435Z,0.47
2023-05-12T15:16:56.059Z,0.80
2023-05-12T15:19:22.694Z,0.40
2023-05-12T15:21:49.290Z,0.47
2023-05-12T15:24:16.120Z,0.77
2023-05-12T15:26:42.745Z,0.20
2023-05-12T15:29:09.338Z,2.30
2023-05-12T15:31:37.447Z,2.53
2023-05-12T15:34:04.448Z,1.23
2023-05-12T15:36:32.290Z,0.50
2023-05-12T15:38:59.098Z,0.90
2023-05-12T15:41:25.835Z,0.73
2023-05-12T15:43:52.423Z,1.58
2023-05-12T15:46:19.051Z,1.17
2023-05-12T15:48:48.571Z,1.67
2023-05-12T15:51:15.217Z,0.93
2023-05-12T15:53:42.053Z,1.65
2023-05-12T15:56:09.040Z,1.00
2023-05-12T15:58:35.690Z,1.13
2023-05-12T16:01:02.394Z,0.50
2023-05-12T16:03:29.243Z,1.92
2023-05-12T16:05:57.322Z,1.23
2023-05-12T16:08:24.132Z,1.23
2023-05-12T16:10:51.229Z,1.20
2023-05-12T16:13:17.840Z,0.73
2023-05-12T16:15:44.487Z,0.85
2023-05-12T16:18:11.693Z,0.98
2023-05-12T16:20:38.945Z,1.35
2023-05-12T16:23:07.268Z,1.00
2023-05-12T16:25:33.864Z,0.80
2023-05-12T16:28:00.514Z,2.20
2023-05-12T16:30:27.358Z,1.08
2023-05-12T16:32:54.409Z,1.10
2023-05-12T16:35:22.170Z,1.08
2023-05-12T16:37:49.085Z,1.30
2023-05-12T16:40:17.074Z,4.45
2023-05-12T16:42:43.800Z,2.40
2023-05-12T16:45:11.314Z,1.92
2023-05-12T16:47:38.304Z,3.85
2023-05-12T16:50:06.148Z,3.95
2023-05-12T16:52:33.419Z,3.78
2023-05-12T16:55:00.634Z,3.33
2023-05-12T16:57:28.581Z,5.13
2023-05-12T16:59:55.284Z,3.60
2023-05-12T17:02:22.080Z,3.85
2023-05-12T17:04:49.139Z,3.47
2023-05-12T17:07:15.860Z,3.78
2023-05-12T17:09:42.564Z,5.50
2023-05-12T17:12:09.502Z,2.22
2023-05-12T17:14:37.916Z,7.28
2023-05-12T17:17:04.954Z,3.90
2023-05-12T17:19:31.793Z,3.22
2023-05-12T17:21:58.395Z,1.35
2023-05-12T17:24:25.181Z,2.05
2023-05-12T17:26:51.809Z,1.65
2023-05-12T17:29:18.477Z,1.92
2023-05-12T17:31:46.963Z,0.70
2023-05-12T17:34:13.682Z,1.35
2023-05-12T17:36:40.403Z,1.52
2023-05-12T17:39:07.097Z,1.42
2023-05-12T17:41:33.763Z,2.85
2023-05-12T17:44:00.463Z,2.10
2023-05-12T17:46:27.627Z,0.70
2023-05-12T17:48:55.793Z,1.85
2023-05-12T17:51:22.599Z,2.17
2023-05-12T17:53:49.186Z,1.90
2023-05-12T17:56:15.846Z,0.77
2023-05-12T17:58:42.427Z,0.90
2023-05-12T18:01:09.491Z,5.25
2023-05-12T18:03:36.729Z,2.35
2023-05-12T18:06:05.652Z,4.93
2023-05-12T18:08:32.281Z,3.65
2023-05-12T18:10:58.853Z,2.58
2023-05-12T18:13:25.407Z,9.25
2023-05-12T18:15:52.227Z,3.10
2023-05-12T18:18:18.840Z,3.30
2023-05-12T18:20:45.832Z,2.00
2023-05-12T18:23:13.788Z,2.20
2023-05-12T18:25:40.556Z,3.25
2023-05-12T18:28:07.505Z,2.70
2023-05-12T18:30:34.175Z,3.10
2023-05-12T18:33:00.939Z,1.77
2023-05-12T18:35:27.889Z,3.42
2023-05-12T18:37:54.509Z,1.60
2023-05-12T18:40:22.526Z,6.97
2023-05-12T18:42:49.248Z,2.53
2023-05-12T18:45:15.824Z,5.13
2023-05-12T18:47:42.480Z,3.13
2023-05-12T18:50:10.012Z,3.70
2023-05-12T18:52:36.639Z,4.63
2023-05-12T18:55:03.588Z,2.67
2023-05-12T18:57:31.740Z,2.47
2023-05-12T18:59:58.418Z,2.50
2023-05-12T19:02:25.241Z,1.95
2023-05-12T19:04:52.484Z,1.80
2023-05-12T19:07:19.402Z,2.17
2023-05-12T19:09:46.473Z,3.05
2023-05-12T19:12:13.219Z,2.97
2023-05-12T19:14:42.965Z,2.72
2023-05-12T19:19:36.095Z,2.30
2023-05-12T19:22:04.157Z,2.17
2023-05-12T19:24:30.993Z,2.38
2023-05-12T19:26:57.621Z,2.35
2023-05-12T19:29:24.413Z,3.95
2023-05-12T19:31:55.239Z,4.60
2023-05-12T19:34:21.980Z,3.40
2023-05-12T19:36:48.651Z,2.40
2023-05-12T19:39:15.301Z,2.22
2023-05-12T19:41:41.957Z,3.03
2023-05-12T19:44:08.546Z,2.10
2023-05-12T19:46:35.300Z,2.53
2023-05-12T19:49:05.734Z,2.83
2023-05-12T19:51:33.038Z,2.50
2023-05-12T19:53:59.770Z,2.55
2023-05-12T19:56:27.122Z,2.33
2023-05-12T19:58:53.806Z,2.28
2023-05-12T20:01:20.653Z,2.45
2023-05-12T20:03:47.375Z,4.45
2023-05-12T20:06:15.538Z,2.35
2023-05-12T20:08:42.191Z,2.47
2023-05-12T20:11:08.941Z,3.08
2023-05-12T20:13:35.535Z,2.40
2023-05-12T20:16:02.585Z,2.13
2023-05-12T20:18:29.238Z,2.92
2023-05-12T20:20:56.247Z,3.45
2023-05-12T20:23:24.648Z,2.65
2023-05-12T20:25:52.125Z,6.28
2023-05-12T20:28:18.961Z,2.42
2023-05-12T20:30:46.056Z,2.55
2023-05-12T20:33:12.859Z,2.30
2023-05-12T20:35:39.491Z,2.13
2023-05-12T20:38:07.008Z,2.53
2023-05-12T20:40:34.990Z,2.22
2023-05-12T20:43:01.928Z,2.33
2023-05-12T20:45:28.506Z,2.60
2023-05-12T20:47:55.288Z,2.38
2023-05-12T20:50:23.661Z,2.78
2023-05-12T20:52:50.384Z,2.55
2023-05-12T20:55:17.098Z,2.40
2023-05-12T20:57:45.188Z,2.70
2023-05-12T21:00:13.762Z,2.25
2023-05-12T21:02:40.706Z,2.35
2023-05-12T21:05:07.809Z,2.88
2023-05-12T21:07:34.504Z,2.55
2023-05-12T21:10:01.498Z,2.45
2023-05-12T21:12:28.241Z,2.17
2023-05-12T21:14:56.303Z,2.42
2023-05-12T21:17:23.054Z,2.45
2023-05-12T21:19:49.806Z,3.53
2023-05-12T21:22:16.703Z,2.47
2023-05-12T21:24:43.445Z,4.28
2023-05-12T21:27:10.371Z,2.58
2023-05-12T21:29:37.224Z,3.05
2023-05-12T21:32:06.197Z,2.65
2023-05-12T21:34:33.786Z,2.60
2023-05-12T21:37:00.569Z,3.90
2023-05-12T21:39:27.830Z,1.88
2023-05-12T21:41:54.855Z,4.65
2023-05-12T21:44:21.518Z,2.10
2023-05-12T21:46:48.227Z,2.45
2023-05-12T21:49:16.311Z,2.90
2023-05-12T21:51:42.965Z,2.45
2023-05-12T21:54:09.875Z,2.42
2023-05-12T21:56:36.837Z,2.20
2023-05-12T21:59:03.534Z,3.17
2023-05-12T22:01:30.717Z,1.95
2023-05-12T22:03:58.619Z,2.35
2023-05-12T22:06:26.905Z,2.20
2023-05-12T22:08:54.169Z,2.67
2023-05-12T22:11:21.588Z,2.05
2023-05-12T22:13:48.246Z,2.50
2023-05-12T22:16:14.940Z,2.45
2023-05-12T22:18:45.178Z,2.03
2023-05-12T22:21:12.529Z,2.35
2023-05-12T22:23:42.116Z,3.17
2023-05-12T22:28:35.301Z,2.03
2023-05-12T22:31:02.006Z,2.00
2023-05-12T22:33:28.633Z,2.08
2023-05-12T22:35:57.696Z,2.28
2023-05-12T22:38:24.363Z,2.63
2023-05-12T22:40:52.366Z,2.03
2023-05-12T22:43:18.927Z,1.90
2023-05-12T22:45:49.721Z,2.08
2023-05-12T22:48:16.268Z,1.85
2023-05-12T22:50:42.848Z,4.88
2023-05-12T22:53:09.423Z,2.20
2023-05-12T22:55:35.970Z,2.28
2023-05-12T22:58:03.912Z,2.10
2023-05-12T23:00:30.676Z,3.17
2023-05-12T23:02:57.418Z,2.45
2023-05-12T23:05:24.220Z,1.90
2023-05-12T23:07:50.785Z,2.20
2023-05-12T23:10:17.429Z,3.25
2023-05-12T23:12:44.037Z,2.00
2023-05-12T23:15:12.341Z,2.28
2023-05-12T23:17:39.174Z,2.55
2023-05-12T23:20:07.760Z,2.60
2023-05-12T23:22:34.382Z,2.47
2023-05-12T23:25:00.945Z,2.33
2023-05-12T23:27:27.531Z,2.95
2023-05-12T23:29:54.238Z,2.25
2023-05-12T23:32:22.356Z,2.97
2023-05-12T23:34:49.668Z,2.42
2023-05-12T23:37:16.249Z,2.08
2023-05-12T23:39:42.859Z,2.60
2023-05-12T23:42:09.431Z,3.03
2023-05-12T23:44:36.052Z,2.00
2023-05-12T23:47:02.645Z,1.92
2023-05-12T23:49:30.789Z,2.22
2023-05-12T23:51:57.372Z,2.08
2023-05-12T23:54:24.015Z,2.10
2023-05-12T23:56:50.976Z,2.20
2023-05-12T23:59:17.643Z,2.05
